createdAt,value
2018-10-12T00:01:44.688Z,61.10
2018-10-12T00:04:16.297Z,61.10
2018-10-12T00:06:59.046Z,61.30
2018-10-12T00:09:30.446Z,61.30
2018-10-12T00:12:01.332Z,61.30
2018-10-12T00:14:32.022Z,61.30
2018-10-12T00:17:03.637Z,61.30
2018-10-12T00:19:48.747Z,61.30
2018-10-12T00:22:19.584Z,61.30
2018-10-12T00:24:50.656Z,61.20
2018-10-12T00:27:28.966Z,61.30
2018-10-12T00:29:59.913Z,61.20
2018-10-12T00:32:34.155Z,61.30
2018-10-12T00:35:05.264Z,61.30
2018-10-12T00:37:42.445Z,61.30
2018-10-12T00:40:42.767Z,61.30
2018-10-12T00:43:14.096Z,61.30
2018-10-12T00:45:45.434Z,61.30
2018-10-12T00:48:16.951Z,61.50
2018-10-12T00:50:48.231Z,61.50
2018-10-12T00:53:19.761Z,61.60
2018-10-12T00:56:01.167Z,61.60
2018-10-12T00:58:39.587Z,61.60
2018-10-12T01:01:13.120Z,61.70
2018-10-12T01:03:45.814Z,61.70
2018-10-12T01:06:16.626Z,61.70
2018-10-12T01:09:00.729Z,61.80
2018-10-12T01:11:32.129Z,61.90
2018-10-12T01:14:02.862Z,61.90
2018-10-12T01:16:39.575Z,62.00
2018-10-12T01:19:10.707Z,62.00
2018-10-12T01:21:41.186Z,62.10
2018-10-12T01:24:15.112Z,62.10
2018-10-12T01:26:45.902Z,62.20
2018-10-12T01:29:24.904Z,62.30
2018-10-12T01:31:54.900Z,62.30
2018-10-12T01:34:24.418Z,62.30
2018-10-12T01:36:54.339Z,62.40
2018-10-12T01:39:25.918Z,62.40
2018-10-12T01:41:55.561Z,62.40
2018-10-12T01:44:27.709Z,62.50
2018-10-12T01:46:56.985Z,62.50
2018-10-12T01:49:37.907Z,62.60
2018-10-12T01:52:08.585Z,62.70
2018-10-12T01:54:39.528Z,62.70
2018-10-12T01:57:12.001Z,62.80
2018-10-12T01:59:45.402Z,62.90
2018-10-12T02:04:54.515Z,63.10
2018-10-12T02:07:24.045Z,63.20
2018-10-12T02:10:08.582Z,63.20
2018-10-12T02:12:37.999Z,63.20
2018-10-12T02:15:08.134Z,63.30
2018-10-12T02:17:38.062Z,63.30
2018-10-12T02:20:10.749Z,63.50
2018-10-12T02:22:41.728Z,63.60
2018-10-12T02:25:12.121Z,63.60
2018-10-12T02:27:43.295Z,63.80
2018-10-12T02:30:26.765Z,63.90
2018-10-12T02:32:57.675Z,63.90
2018-10-12T02:35:29.821Z,64.00
2018-10-12T02:38:03.757Z,64.00
2018-10-12T02:41:12.895Z,64.10
2018-10-12T02:43:44.289Z,64.20
2018-10-12T02:46:16.213Z,64.20
2018-10-12T02:48:46.590Z,64.30
2018-10-12T02:51:16.213Z,64.30
2018-10-12T02:53:51.690Z,64.40
2018-10-12T02:56:23.375Z,64.50
2018-10-12T02:58:57.752Z,64.60
2018-10-12T03:01:28.221Z,64.60
2018-10-12T03:04:00.092Z,64.70
2018-10-12T03:06:30.021Z,64.80
2018-10-12T03:09:02.965Z,64.80
2018-10-12T03:11:34.526Z,64.90
2018-10-12T03:14:04.143Z,64.90
2018-10-12T03:16:33.891Z,64.90
2018-10-12T03:19:06.446Z,65.00
2018-10-12T03:21:42.327Z,65.00
2018-10-12T03:24:15.684Z,65.00
2018-10-12T03:26:47.111Z,64.90
2018-10-12T03:35:30.439Z,65.00
2018-10-12T03:38:02.650Z,65.00
2018-10-12T03:41:02.637Z,65.20
2018-10-12T03:43:35.778Z,65.30
2018-10-12T03:46:14.447Z,65.30
2018-10-12T03:48:45.098Z,65.30
2018-10-12T03:51:15.018Z,65.40
2018-10-12T03:53:45.230Z,65.50
2018-10-12T03:56:15.152Z,65.60
2018-10-12T03:58:46.309Z,65.70
2018-10-12T04:01:20.383Z,65.80
2018-10-12T04:03:52.216Z,65.80
2018-10-12T04:06:26.212Z,65.90
2018-10-12T04:08:56.183Z,65.90
2018-10-12T04:11:33.949Z,65.90
2018-10-12T04:14:05.470Z,65.90
2018-10-12T04:16:35.221Z,65.90
2018-10-12T04:19:05.534Z,65.90
2018-10-12T04:21:36.492Z,66.00
2018-10-12T04:24:06.875Z,66.00
2018-10-12T04:26:37.028Z,66.00
2018-10-12T04:29:07.080Z,66.10
2018-10-12T04:31:41.978Z,66.20
2018-10-12T04:34:18.285Z,66.30
2018-10-12T04:36:59.707Z,66.30
2018-10-12T04:47:51.466Z,66.30
2018-10-12T04:50:34.096Z,66.40
2018-10-12T04:58:29.227Z,66.40
2018-10-12T05:04:38.419Z,66.40
2018-10-12T05:07:12.469Z,66.40
2018-10-12T05:09:53.117Z,66.50
2018-10-12T05:20:47.365Z,66.70
2018-10-12T05:26:21.979Z,66.80
2018-10-12T05:29:06.862Z,66.90
2018-10-12T05:31:59.700Z,67.00
2018-10-12T05:37:22.267Z,67.20
2018-10-12T05:45:19.736Z,67.20
2018-10-12T05:47:51.158Z,67.20
2018-10-12T05:50:38.219Z,67.10
2018-10-12T06:07:49.536Z,67.00
2018-10-12T06:18:57.185Z,66.80
2018-10-12T06:27:07.174Z,66.70
2018-10-12T06:50:09.375Z,66.20
2018-10-12T06:52:45.409Z,66.20
2018-10-12T06:58:13.263Z,66.00
2018-10-12T07:00:54.661Z,65.90
2018-10-12T07:09:34.538Z,65.60
2018-10-12T07:12:20.254Z,65.50
2018-10-12T07:17:40.777Z,65.20
2018-10-12T07:20:19.223Z,65.20
2018-10-12T07:22:52.282Z,65.10
2018-10-12T07:25:29.367Z,64.90
2018-10-12T07:33:50.563Z,64.50
2018-10-12T07:36:27.896Z,64.20
2018-10-12T07:41:59.966Z,64.10
2018-10-12T07:44:33.378Z,63.90
2018-10-12T07:47:13.080Z,63.80
2018-10-12T07:49:50.557Z,63.60
2018-10-12T07:52:36.875Z,63.20
2018-10-12T07:55:13.304Z,63.10
2018-10-12T07:57:45.843Z,62.90
2018-10-12T08:06:40.217Z,62.30
2018-10-12T08:26:13.467Z,61.20
2018-10-12T08:31:32.995Z,60.80
2018-10-12T08:37:40.717Z,60.10
2018-10-12T08:40:17.980Z,59.80
2018-10-12T08:42:52.135Z,59.20
2018-10-12T08:45:33.274Z,59.40
2018-10-12T08:48:03.646Z,58.60
2018-10-12T08:53:21.852Z,58.10
2018-10-12T08:59:21.130Z,57.50
2018-10-12T10:38:28.863Z,52.00
2018-10-12T10:55:06.810Z,51.70
2018-10-12T11:00:34.080Z,51.50
2018-10-12T11:08:48.065Z,50.60
2018-10-12T12:57:12.009Z,47.20
2018-10-12T12:59:44.653Z,47.10
2018-10-12T13:02:20.433Z,47.20
2018-10-12T13:12:38.014Z,47.40
2018-10-12T13:15:11.555Z,47.50
2018-10-12T13:24:12.176Z,47.30
2018-10-12T14:23:30.533Z,48.30
2018-10-12T14:26:19.667Z,48.40
2018-10-12T18:09:37.792Z,59.30
2018-10-12T18:16:17.639Z,59.50
2018-10-12T18:28:55.773Z,59.70
2018-10-12T21:05:42.804Z,61.00
2018-10-12T21:08:16.501Z,60.80
2018-10-12T21:10:46.752Z,60.80
2018-10-12T21:13:29.081Z,60.70
2018-10-12T21:15:59.665Z,60.60
2018-10-12T21:18:33.469Z,60.60
2018-10-12T21:21:13.195Z,60.60
2018-10-12T21:23:43.055Z,60.60
2018-10-12T21:26:18.189Z,60.40
2018-10-12T21:28:52.356Z,60.40
2018-10-12T21:31:29.487Z,60.40
2018-10-12T21:34:01.111Z,60.40
2018-10-12T21:36:35.450Z,60.30
2018-10-12T21:39:09.395Z,60.20
2018-10-12T21:41:39.619Z,60.30
2018-10-12T21:44:18.814Z,60.30
2018-10-12T21:46:54.999Z,60.20
2018-10-12T21:50:13.371Z,60.20
2018-10-12T21:52:44.537Z,60.10
2018-10-12T21:55:24.483Z,60.00
2018-10-12T21:57:54.150Z,60.10
2018-10-12T22:00:25.631Z,60.10
2018-10-12T22:02:57.905Z,60.10
2018-10-12T22:05:33.014Z,60.00
2018-10-12T22:08:04.650Z,60.00
2018-10-12T22:10:34.651Z,60.10
2018-10-12T22:13:06.004Z,60.00
2018-10-12T22:15:37.499Z,60.00
2018-10-12T22:18:11.005Z,60.00
2018-10-12T22:20:43.230Z,60.00
2018-10-12T22:23:20.423Z,60.00
2018-10-12T22:25:51.095Z,60.00
2018-10-12T22:28:20.816Z,59.90
2018-10-12T22:30:50.730Z,59.90
2018-10-12T22:33:25.935Z,60.00
2018-10-12T22:36:00.490Z,59.90
2018-10-12T22:41:31.533Z,59.90
2018-10-12T22:44:04.375Z,59.70
2018-10-12T22:46:39.672Z,59.70
2018-10-12T22:51:58.011Z,59.40
2018-10-12T22:54:32.019Z,59.20
2018-10-12T22:59:57.074Z,59.30
2018-10-12T23:02:31.241Z,59.30
2018-10-12T23:05:01.771Z,59.30
2018-10-12T23:07:32.919Z,59.40
2018-10-12T23:10:08.517Z,59.40
2018-10-12T23:12:39.724Z,59.40
2018-10-12T23:15:12.501Z,59.40
2018-10-12T23:17:41.893Z,59.30
2018-10-12T23:20:26.505Z,59.30
2018-10-12T23:22:56.823Z,59.30
2018-10-12T23:25:26.893Z,59.30
2018-10-12T23:27:56.971Z,59.40
2018-10-12T23:30:28.850Z,59.30
2018-10-12T23:33:10.268Z,59.30
2018-10-12T23:35:41.573Z,59.90
2018-10-12T23:38:12.751Z,59.20
2018-10-12T23:40:49.787Z,59.10
2018-10-12T23:43:22.229Z,59.30
2018-10-12T23:45:52.537Z,59.10
2018-10-12T23:48:22.181Z,59.10
2018-10-12T23:51:00.171Z,59.10
2018-10-12T23:53:30.649Z,59.10
2018-10-12T23:56:03.467Z,59.00
2018-10-12T23:58:34.787Z,59.00
